Time;durP1;ratioP1;P1;durP2;ratioP2;P2;SDS_P1;SDS_P2;PMS_P1;PMS_P2;Temp;Humidity;BMP_temperature;BMP_pressure;BME280_temperature;BME280_humidity;BME280_pressure;Samples;Min_cycle;Max_cycle;Signal;HPM_P1;HPM_P2
2021/07/02 00:00:17;;;;;;;0.43;0.43;;;;;;;16.30;77.17;98959.94;5168748;27;21104;-82
2021/07/02 00:03:00;;;;;;;0.80;0.80;;;;;;;16.30;77.08;98962.63;5169473;27;20555;-82
2021/07/02 00:05:41;;;;;;;1.80;1.10;;;;;;;16.30;77.06;98960.81;5189315;27;1312218;-82
2021/07/02 00:08:27;;;;;;;0.63;0.60;;;;;;;16.32;76.92;98963.34;5168753;27;20554;-82
2021/07/02 00:11:10;;;;;;;0.73;0.73;;;;;;;16.33;77.27;98959.66;5147941;27;20553;-82
2021/07/02 00:13:52;;;;;;;0.70;0.67;;;;;;;16.33;77.28;98959.66;5170344;27;1353252;-82
2021/07/02 00:16:35;;;;;;;1.07;1.00;;;;;;;16.28;77.15;98945.88;5106497;28;20560;-82
2021/07/02 00:19:18;;;;;;;1.10;0.97;;;;;;;16.32;77.06;98956.16;5149139;27;20559;-82
2021/07/02 00:22:01;;;;;;;1.03;0.83;;;;;;;16.32;77.14;98955.34;5107227;28;20563;-82
2021/07/02 00:24:43;;;;;;;1.35;1.25;;;;;;;16.30;77.21;98955.47;5188551;27;1326180;-83
2021/07/02 00:27:28;;;;;;;1.33;1.20;;;;;;;16.20;77.48;98943.81;5107074;28;20556;-82
2021/07/02 00:30:09;;;;;;;1.10;1.00;;;;;;;16.22;77.23;98941.88;5181399;27;1538042;-82
2021/07/02 00:32:53;;;;;;;1.70;1.33;;;;;;;16.27;77.63;98954.84;5168716;27;20581;-83
2021/07/02 00:35:37;;;;;;;1.13;1.03;;;;;;;16.23;77.59;98948.06;5107181;28;20560;-83
2021/07/02 00:38:19;;;;;;;1.40;1.30;;;;;;;16.22;77.52;98957.06;5106545;28;20564;-83
2021/07/02 00:41:02;;;;;;;1.40;1.30;;;;;;;16.14;77.68;98945.19;5113431;28;20536;-83
2021/07/02 00:43:59;;;;;;;1.77;1.40;;;;;;;16.20;77.31;98959.00;5199723;27;1361666;-83
2021/07/02 00:46:43;;;;;;;1.70;1.60;;;;;;;16.09;77.48;98944.72;5132140;27;20566;-82
2021/07/02 00:49:27;;;;;;;1.17;1.07;;;;;;;16.09;77.34;98941.19;5120301;28;20531;-82
2021/07/02 00:52:11;;;;;;;0.60;0.60;;;;;;;16.14;77.61;98949.69;5133710;27;20576;-81
2021/07/02 00:54:55;;;;;;;0.87;0.70;;;;;;;16.11;77.39;98953.47;5161304;27;20571;-82
2021/07/02 00:57:41;;;;;;;0.80;0.80;;;;;;;16.00;77.40;98929.47;5123713;28;20588;-83
2021/07/02 01:00:24;;;;;;;0.50;0.50;;;;;;;16.06;77.32;98945.00;5110790;28;20559;-83
2021/07/02 01:03:09;;;;;;;1.87;1.53;;;;;;;15.98;77.70;98926.06;5119843;27;20526;-82
2021/07/02 01:05:52;;;;;;;1.17;0.83;;;;;;;16.01;78.08;98933.00;5106893;28;20556;-83
2021/07/02 01:08:36;;;;;;;1.13;1.00;;;;;;;15.99;77.93;98941.13;5168523;27;20563;-83
2021/07/02 01:11:21;;;;;;;1.33;1.20;;;;;;;15.83;78.15;98914.00;5168638;27;20552;-83
2021/07/02 01:14:04;;;;;;;1.47;1.10;;;;;;;15.80;78.29;98916.94;5148388;27;20557;-85
2021/07/02 01:16:47;;;;;;;1.47;1.37;;;;;;;15.79;78.31;98917.91;5118866;27;20570;-85
2021/07/02 01:19:29;;;;;;;1.13;1.00;;;;;;;15.77;78.23;98915.38;5106904;28;20552;-83
2021/07/02 01:22:16;;;;;;;1.53;1.20;;;;;;;15.77;78.35;98919.84;5149001;27;20595;-86
2021/07/02 01:24:59;;;;;;;1.93;1.50;;;;;;;15.84;78.09;98931.72;5106888;28;20570;-84
2021/07/02 01:27:44;;;;;;;1.20;1.00;;;;;;;15.86;78.55;98924.44;5148251;27;21075;-84
2021/07/02 01:30:28;;;;;;;1.03;0.93;;;;;;;15.75;78.50;98916.47;5168527;27;20648;-83
2021/07/02 01:33:13;;;;;;;1.10;0.93;;;;;;;15.84;78.45;98931.72;5168477;27;20570;-83
2021/07/02 01:35:59;;;;;;;1.17;1.07;;;;;;;15.85;78.46;98928.06;5106963;28;20556;-84
2021/07/02 01:38:44;;;;;;;1.40;1.30;;;;;;;15.84;78.88;98937.06;5107488;28;20566;-84
2021/07/02 01:41:43;;;;;;;2.67;1.60;;;;;;;15.74;78.82;98920.94;5148827;27;20557;-84
2021/07/02 01:44:26;;;;;;;1.30;1.20;;;;;;;15.81;79.03;98932.00;5106392;28;20566;-84
2021/07/02 01:47:10;;;;;;;1.60;1.37;;;;;;;15.66;78.93;98906.56;5190183;27;20557;-84
2021/07/02 01:49:53;;;;;;;1.70;0.80;;;;;;;15.82;78.99;98936.38;5107355;28;20565;-84
2021/07/02 01:52:39;;;;;;;1.10;1.03;;;;;;;15.82;78.93;98938.19;5119453;27;20553;-84
2021/07/02 01:55:23;;;;;;;2.17;1.17;;;;;;;15.80;78.94;98930.28;5105983;28;20552;-83
2021/07/02 01:58:08;;;;;;;1.17;1.00;;;;;;;15.74;78.58;98930.78;5148354;27;20561;-84
2021/07/02 02:00:57;;;;;;;1.00;0.83;;;;;;;15.72;79.00;98924.72;5148793;27;20556;-84
2021/07/02 02:03:40;;;;;;;1.20;1.10;;;;;;;15.70;78.93;98918.69;5169011;27;20559;-84
2021/07/02 02:06:23;;;;;;;1.40;1.30;;;;;;;15.76;79.19;98926.16;5127345;27;20530;-83
2021/07/02 02:09:08;;;;;;;3.70;2.23;;;;;;;15.68;79.25;98912.63;5169007;27;20570;-83
2021/07/02 02:11:52;;;;;;;2.53;2.23;;;;;;;15.76;79.05;98934.19;5169206;27;20573;-84
2021/07/02 02:14:42;;;;;;;1.73;1.43;;;;;;;15.73;79.25;98929.09;5119263;27;20559;-84
2021/07/02 02:17:28;;;;;;;1.30;1.23;;;;;;;15.64;79.38;98919.16;5107130;28;20572;-83
2021/07/02 02:20:15;;;;;;;1.90;1.80;;;;;;;15.66;79.24;98919.91;5169626;27;20559;-83
2021/07/02 02:22:59;;;;;;;1.97;1.50;;;;;;;15.70;79.47;98932.03;5107485;28;20551;-84
2021/07/02 02:25:42;;;;;;;1.73;1.53;;;;;;;15.47;79.38;98893.81;5107001;28;20578;-84
2021/07/02 02:28:25;;;;;;;2.30;1.97;;;;;;;15.56;79.34;98926.97;5106702;28;20556;-84
2021/07/02 02:31:08;;;;;;;2.93;1.70;;;;;;;15.55;79.56;98915.44;5107340;28;20552;-84
2021/07/02 02:33:53;;;;;;;1.63;1.27;;;;;;;15.64;79.33;98943.19;5169388;27;20556;-84
2021/07/02 02:36:36;;;;;;;1.77;1.40;;;;;;;15.55;79.40;98919.94;5106567;28;20544;-84
2021/07/02 02:39:18;;;;;;;2.57;1.40;;;;;;;15.52;79.59;98922.81;5106837;28;20571;-84
2021/07/02 02:42:01;;;;;;;1.87;1.27;;;;;;;15.54;79.50;98928.88;5168827;27;20551;-85
2021/07/02 02:44:43;;;;;;;1.67;1.37;;;;;;;15.59;79.51;98942.72;5168389;27;1364939;-84
2021/07/02 02:47:26;;;;;;;1.57;1.47;;;;;;;15.45;79.56;98928.63;5105869;28;20569;-86
2021/07/02 02:50:10;;;;;;;1.60;1.40;;;;;;;15.57;79.54;98929.53;5107010;28;20576;-85
2021/07/02 02:52:53;;;;;;;1.93;1.33;;;;;;;15.49;79.59;98925.72;5119263;27;20564;-84
2021/07/02 02:55:36;;;;;;;1.93;1.47;;;;;;;15.49;79.57;98920.38;5106620;28;20981;-85
2021/07/02 02:58:20;;;;;;;2.60;1.57;;;;;;;15.48;79.69;98921.34;5106762;28;20548;-85
2021/07/02 03:01:02;;;;;;;3.47;2.23;;;;;;;15.53;79.78;98936.03;5148222;27;20565;-84
2021/07/02 03:03:45;;;;;;;2.77;1.93;;;;;;;15.39;79.80;98918.47;5148237;27;20555;-84
2021/07/02 03:06:32;;;;;;;1.53;1.43;;;;;;;15.43;79.68;98925.28;5087598;28;22215;-84
2021/07/02 03:09:15;;;;;;;1.60;1.43;;;;;;;15.46;79.73;98930.34;5148405;27;20549;-87
2021/07/02 03:11:57;;;;;;;1.20;1.10;;;;;;;15.41;79.74;98923.69;5128191;27;20565;-86
2021/07/02 03:14:39;;;;;;;2.20;1.83;;;;;;;15.40;79.61;98927.31;5148386;27;20521;-86
2021/07/02 03:17:22;;;;;;;1.70;1.60;;;;;;;15.45;80.06;98939.31;5107162;28;20556;-86
2021/07/02 03:20:07;;;;;;;1.17;1.00;;;;;;;15.37;79.81;98928.41;5148483;27;21085;-84
2021/07/02 03:22:50;;;;;;;2.43;1.97;;;;;;;15.45;80.03;98941.16;5169066;27;20589;-84
2021/07/02 03:25:33;;;;;;;1.47;1.10;;;;;;;15.42;79.52;98938.72;5119599;27;20562;-86
2021/07/02 03:28:19;;;;;;;3.20;1.43;;;;;;;15.35;79.95;98925.03;5106648;28;20570;-84
2021/07/02 03:31:02;;;;;;;1.70;1.37;;;;;;;15.37;79.94;98936.44;5161405;27;20562;-83
2021/07/02 03:33:46;;;;;;;1.40;1.07;;;;;;;15.45;79.71;98941.16;5189402;27;20568;-84
2021/07/02 03:36:30;;;;;;;0.97;0.83;;;;;;;15.39;79.82;98936.31;5119096;27;21076;-85
2021/07/02 03:39:12;;;;;;;1.37;0.87;;;;;;;15.42;80.06;98942.25;5169035;27;1356219;-86
2021/07/02 03:41:55;;;;;;;1.87;1.47;;;;;;;15.40;80.10;98943.34;5147661;27;20549;-86
2021/07/02 03:44:38;;;;;;;2.00;1.83;;;;;;;15.38;80.31;98939.94;5107459;28;21005;-84
2021/07/02 03:47:20;;;;;;;1.70;1.33;;;;;;;15.45;80.16;98954.50;5168839;27;21117;-84
2021/07/02 03:50:03;;;;;;;2.90;1.17;;;;;;;15.36;80.19;98945.41;5107438;28;20563;-85
2021/07/02 03:52:45;;;;;;;2.10;1.60;;;;;;;15.37;80.45;98941.75;5148633;27;20561;-85
2021/07/02 03:55:27;;;;;;;1.53;1.23;;;;;;;15.37;80.58;98940.91;5169066;27;20570;-84
2021/07/02 03:58:11;;;;;;;1.90;1.70;;;;;;;15.37;80.40;98947.09;5106762;28;20912;-86
2021/07/02 04:00:53;;;;;;;2.00;1.53;;;;;;;15.33;80.29;98948.31;5119924;27;20557;-86
2021/07/02 04:03:36;;;;;;;1.67;1.40;;;;;;;15.40;80.50;98954.88;5148207;27;20555;-85
2021/07/02 04:06:18;;;;;;;1.80;1.30;;;;;;;15.33;80.26;98944.81;5148202;27;21122;-85
2021/07/02 04:09:00;;;;;;;1.60;1.17;;;;;;;15.34;80.27;98954.50;5169447;27;20558;-85
2021/07/02 04:11:43;;;;;;;1.93;1.17;;;;;;;15.35;80.09;98946.38;5184171;27;1461482;-85
2021/07/02 04:14:25;;;;;;;1.20;1.10;;;;;;;15.37;80.32;98949.75;5147742;27;21428;-84
2021/07/02 04:17:07;;;;;;;1.27;0.93;;;;;;;15.38;80.06;98946.13;5148795;27;20559;-84
2021/07/02 04:19:49;;;;;;;1.70;1.43;;;;;;;15.38;80.14;98956.81;5148097;27;20565;-85
2021/07/02 04:22:32;;;;;;;1.23;1.20;;;;;;;15.36;80.15;98948.06;5169709;27;20558;-85
2021/07/02 04:25:16;;;;;;;2.60;1.53;;;;;;;15.44;80.29;98959.00;5147536;27;20629;-86
2021/07/02 04:27:59;;;;;;;2.13;1.80;;;;;;;15.49;80.26;98963.09;5105962;28;20576;-85
2021/07/02 04:30:40;;;;;;;1.87;1.37;;;;;;;15.46;80.14;98958.84;5180751;27;1502706;-84
2021/07/02 04:33:25;;;;;;;3.17;1.80;;;;;;;15.55;79.79;98962.66;5088842;28;20569;-85
2021/07/02 04:36:23;;;;;;;1.90;1.80;;;;;;;15.46;79.78;98953.50;5119772;27;20554;-84
2021/07/02 04:39:06;;;;;;;1.63;1.53;;;;;;;15.48;79.62;98956.91;5119464;27;20558;-84
2021/07/02 04:41:49;;;;;;;1.77;1.33;;;;;;;15.49;80.04;98957.75;5169543;27;20622;-86
2021/07/02 04:44:32;;;;;;;2.60;1.83;;;;;;;15.52;80.01;98954.84;5119374;27;20600;-84
2021/07/02 04:47:14;;;;;;;3.90;1.83;;;;;;;15.54;79.93;98960.91;5104238;27;20574;-84
2021/07/02 04:49:56;;;;;;;1.80;0.90;;;;;;;15.57;79.69;98955.38;5119350;27;20558;-84
2021/07/02 04:52:39;;;;;;;1.37;1.27;;;;;;;15.47;79.64;98941.84;5107152;28;20561;-85
2021/07/02 04:55:21;;;;;;;1.80;1.50;;;;;;;15.63;79.49;98962.84;5147674;27;20572;-85
2021/07/02 04:58:06;;;;;;;1.57;1.40;;;;;;;15.73;79.50;98977.16;5115539;27;20564;-84
2021/07/02 05:00:48;;;;;;;1.83;1.73;;;;;;;15.75;79.46;98976.06;5147945;27;21040;-86
2021/07/02 05:03:31;;;;;;;0.93;0.83;;;;;;;15.70;79.68;98962.22;5105718;28;21078;-84
2021/07/02 05:06:14;;;;;;;1.53;1.43;;;;;;;15.78;79.55;98974.97;5147123;27;20559;-86
2021/07/02 05:09:11;;;;;;;1.97;1.70;;;;;;;15.71;79.55;98960.41;5105279;28;20548;-86
2021/07/02 05:11:54;;;;;;;1.20;1.10;;;;;;;15.73;79.78;98961.13;5127131;27;20550;-86
2021/07/02 05:14:37;;;;;;;1.10;1.10;;;;;;;15.81;79.44;98972.06;5168126;27;21122;-84
2021/07/02 05:17:19;;;;;;;2.23;1.60;;;;;;;15.80;79.41;98967.69;5167738;27;20568;-85
2021/07/02 05:20:03;;;;;;;2.07;1.43;;;;;;;15.80;79.31;98968.53;5118658;27;20627;-84
2021/07/02 05:22:46;;;;;;;2.00;1.80;;;;;;;15.89;79.34;98988.28;5118275;27;20564;-85
2021/07/02 05:25:31;;;;;;;1.23;1.10;;;;;;;15.83;79.43;98972.75;5107099;28;20560;-84
2021/07/02 05:28:13;;;;;;;1.23;1.20;;;;;;;15.83;79.09;98972.75;5127060;27;20571;-84
2021/07/02 05:30:57;;;;;;;1.30;0.87;;;;;;;15.96;79.02;98994.81;5105998;28;20535;-84
2021/07/02 05:33:39;;;;;;;1.37;1.27;;;;;;;15.96;79.19;98994.81;5106470;28;20568;-85
2021/07/02 05:37:06;;;;;;;2.00;1.60;;;;;;;15.92;78.94;98974.69;5106392;28;20567;-84
2021/07/02 05:39:49;;;;;;;1.73;1.27;;;;;;;16.04;78.91;98991.50;5148415;27;20555;-84
2021/07/02 05:42:31;;;;;;;2.07;1.57;;;;;;;16.01;79.19;98979.25;5180388;27;1541969;-84
2021/07/02 05:45:14;;;;;;;1.80;1.17;;;;;;;16.09;78.79;98995.47;5106527;28;20567;-84
2021/07/02 05:48:00;;;;;;;1.80;1.50;;;;;;;16.05;78.87;98982.53;5107215;28;20560;-84
2021/07/02 05:50:42;;;;;;;1.77;1.67;;;;;;;16.21;78.61;98998.13;5106694;28;20560;-84
2021/07/02 05:53:26;;;;;;;1.67;1.40;;;;;;;16.12;78.87;98986.38;5147135;27;20564;-84
2021/07/02 05:56:09;;;;;;;1.50;1.40;;;;;;;16.19;78.40;98982.25;5107123;28;21094;-82
2021/07/02 05:58:52;;;;;;;2.17;1.83;;;;;;;16.08;78.62;98956.38;5118337;27;20573;-86
2021/07/02 06:01:35;;;;;;;2.27;2.07;;;;;;;16.20;78.36;98964.34;5125718;27;20933;-81
2021/07/02 06:04:18;;;;;;;2.50;2.30;;;;;;;16.43;78.46;99003.38;5147399;27;20568;-84
2021/07/02 06:07:00;;;;;;;1.20;1.10;;;;;;;16.45;78.11;99006.75;5106017;28;20586;-82
2021/07/02 06:09:43;;;;;;;1.13;1.03;;;;;;;16.47;78.01;98991.44;5106528;28;20557;-81
2021/07/02 06:12:26;;;;;;;1.73;1.57;;;;;;;16.55;77.93;99002.34;5167462;27;20551;-81
2021/07/02 06:15:10;;;;;;;1.73;1.60;;;;;;;16.54;77.64;98995.31;5106102;28;20572;-82
2021/07/02 06:17:53;;;;;;;1.50;1.20;;;;;;;16.72;77.60;99019.66;5105822;28;20560;-81
2021/07/02 06:20:36;;;;;;;1.87;1.77;;;;;;;16.80;77.55;99012.69;5106385;28;20582;-86
2021/07/02 06:23:19;;;;;;;2.17;1.93;;;;;;;16.79;76.92;99005.63;5104770;28;20576;-80
2021/07/02 06:26:02;;;;;;;1.67;1.30;;;;;;;16.90;77.03;99023.44;5160359;27;21065;-85
2021/07/02 06:28:45;;;;;;;1.67;1.47;;;;;;;16.88;77.00;99012.88;5168690;27;20554;-83
2021/07/02 06:31:28;;;;;;;1.70;1.20;;;;;;;16.90;76.02;99018.09;5160938;27;20558;-83
2021/07/02 06:34:10;;;;;;;1.60;1.50;;;;;;;17.09;76.56;99033.38;5168003;27;20565;-79
2021/07/02 06:36:51;;;;;;;2.07;1.70;;;;;;;17.08;76.14;99015.63;5104407;28;20571;-80
2021/07/02 06:39:32;;;;;;;3.47;1.90;;;;;;;17.28;75.57;99033.50;5168531;27;20547;-80
2021/07/02 06:42:14;;;;;;;1.73;1.63;;;;;;;17.39;75.57;99036.09;5105725;28;20568;-81
2021/07/02 06:44:58;;;;;;;1.80;1.40;;;;;;;17.51;75.79;99034.16;5106689;28;20555;-82
2021/07/02 06:48:00;;;;;;;3.13;2.53;;;;;;;17.65;75.37;99035.66;5106857;28;20575;-81
2021/07/02 06:50:45;;;;;;;1.77;1.20;;;;;;;17.76;74.88;99032.88;5148627;27;20567;-86
2021/07/02 06:53:27;;;;;;;1.53;1.40;;;;;;;17.89;74.31;99039.69;5105456;28;20563;-83
2021/07/02 06:56:13;;;;;;;2.37;2.17;;;;;;;18.04;74.47;99034.78;5147355;27;21067;-84
2021/07/02 06:58:55;;;;;;;3.57;2.03;;;;;;;18.16;74.76;99036.34;5105844;28;20552;-85
2021/07/02 07:01:39;;;;;;;2.67;2.03;;;;;;;18.28;74.02;99045.09;5167437;27;1369396;-82
2021/07/02 07:04:21;;;;;;;1.57;1.30;;;;;;;18.39;74.23;99031.56;5106120;28;20567;-80
2021/07/02 07:07:04;;;;;;;2.40;2.20;;;;;;;18.55;73.47;99036.34;5126735;27;20550;-79
2021/07/02 07:10:30;;;;;;;1.40;1.27;;;;;;;18.75;72.80;99040.75;5167904;27;20542;-79
2021/07/02 07:13:14;;;;;;;2.33;1.87;;;;;;;18.62;72.63;98989.22;5105751;28;20560;-80
2021/07/02 07:15:57;;;;;;;2.00;1.57;;;;;;;19.21;72.21;99047.16;5105969;28;20556;-82
2021/07/02 07:18:39;;;;;;;1.73;1.30;;;;;;;19.37;71.67;99055.44;5188564;27;20564;-80
2021/07/02 07:21:21;;;;;;;1.53;1.43;;;;;;;19.41;70.49;99048.75;5099683;28;21078;-82
2021/07/02 07:24:05;;;;;;;4.90;2.77;;;;;;;19.52;69.46;99061.22;5105974;27;20578;-81
2021/07/02 07:26:48;;;;;;;1.90;1.57;;;;;;;19.58;68.94;99061.47;5126433;27;20558;-80
2021/07/02 07:29:28;;;;;;;2.33;1.90;;;;;;;19.71;69.14;99071.88;5169301;27;1347904;-81
2021/07/02 07:32:10;;;;;;;1.40;1.30;;;;;;;19.89;69.38;99071.94;5148398;27;20571;-81
2021/07/02 07:35:23;;;;;;;2.50;2.07;;;;;;;20.11;68.61;99066.16;5169105;27;20554;-83
2021/07/02 07:38:19;;;;;;;3.30;2.20;;;;;;;20.27;66.89;99076.25;5105848;28;20557;-84
2021/07/02 07:41:01;;;;;;;2.00;1.80;;;;;;;20.44;66.60;99062.84;5106765;28;20698;-82
2021/07/02 07:43:47;;;;;;;2.07;1.97;;;;;;;20.77;66.06;99053.19;5126188;27;20563;-83
2021/07/02 07:46:29;;;;;;;2.73;2.23;;;;;;;21.19;65.13;99070.53;5106275;28;20556;-82
2021/07/02 07:49:12;;;;;;;1.63;1.53;;;;;;;21.45;64.44;99063.31;5168782;27;20563;-82
2021/07/02 07:51:59;;;;;;;1.67;1.53;;;;;;;21.74;63.89;99071.91;5106130;28;20562;-83
2021/07/02 07:54:41;;;;;;;2.13;1.93;;;;;;;21.88;63.38;99073.97;5104931;28;20560;-83
2021/07/02 07:57:23;;;;;;;3.00;1.93;;;;;;;21.90;62.64;99073.78;5105865;28;20560;-81
2021/07/02 08:00:06;;;;;;;1.80;1.70;;;;;;;21.94;61.68;99085.13;5146915;27;20567;-81
2021/07/02 08:02:51;;;;;;;1.50;1.40;;;;;;;21.91;61.17;99063.84;5167164;27;21108;-82
2021/07/02 08:05:35;;;;;;;2.77;1.70;;;;;;;22.11;60.66;99093.16;5126483;27;20571;-81
2021/07/02 08:08:18;;;;;;;1.93;1.37;;;;;;;22.15;59.10;99104.44;5105242;28;21144;-82
2021/07/02 08:11:00;;;;;;;2.17;1.80;;;;;;;22.05;59.49;99071.38;5146801;27;21107;-82
2021/07/02 08:13:43;;;;;;;1.63;1.50;;;;;;;22.18;57.85;99093.31;5100379;28;20558;-82
2021/07/02 08:16:25;;;;;;;1.63;1.52;;;;;;;22.34;59.05;99100.63;5171672;27;1290392;-81
2021/07/02 08:19:08;;;;;;;3.37;1.53;;;;;;;22.49;59.32;99097.13;5106230;28;20573;-82
2021/07/02 08:21:52;;;;;;;1.87;1.70;;;;;;;22.62;59.25;99101.22;5147501;27;20554;-82
2021/07/02 08:24:36;;;;;;;2.53;2.23;;;;;;;22.57;58.45;99093.59;5190068;27;20550;-80
2021/07/02 08:27:19;;;;;;;4.00;3.07;;;;;;;22.76;58.38;99100.56;5147772;27;20561;-80
2021/07/02 08:30:02;;;;;;;3.43;2.20;;;;;;;22.88;57.53;99108.16;5106580;28;20650;-80
2021/07/02 08:32:43;;;;;;;2.07;1.87;;;;;;;22.92;57.55;99076.25;5167187;27;1580864;-79
2021/07/02 08:35:28;;;;;;;1.97;1.80;;;;;;;23.23;56.64;99100.75;5105363;28;21047;-80
2021/07/02 08:38:11;;;;;;;4.67;2.00;;;;;;;23.43;56.71;99106.63;5147171;27;20557;-80
2021/07/02 08:40:54;;;;;;;1.43;1.33;;;;;;;23.60;55.34;99109.16;5106204;28;20564;-79
2021/07/02 08:43:36;;;;;;;1.90;1.80;;;;;;;23.75;54.62;99111.97;5105702;28;20578;-79
2021/07/02 08:46:20;;;;;;;2.37;2.03;;;;;;;23.89;54.64;99105.84;5105799;28;20572;-80
2021/07/02 08:49:05;;;;;;;2.20;2.00;;;;;;;24.07;54.01;99115.59;5106135;28;20568;-79
2021/07/02 08:51:47;;;;;;;1.30;1.20;;;;;;;24.28;53.93;99110.47;5106166;28;20590;-78
2021/07/02 08:54:41;;;;;;;1.67;1.57;;;;;;;24.39;53.49;99099.22;5106557;28;20556;-79
2021/07/02 08:57:24;;;;;;;1.73;1.23;;;;;;;24.86;52.82;99119.91;5104191;28;20561;-79
2021/07/02 09:00:07;;;;;;;1.77;1.40;;;;;;;25.17;51.69;99125.31;5104135;28;20590;-80
2021/07/02 09:02:51;;;;;;;1.67;1.57;;;;;;;25.33;51.51;99119.75;5105599;28;20600;-79
2021/07/02 09:05:36;;;;;;;1.60;1.50;;;;;;;25.49;51.21;99124.16;5106497;28;20568;-80
2021/07/02 09:08:18;;;;;;;2.23;1.97;;;;;;;25.59;50.79;99105.75;5125947;27;20573;-80
2021/07/02 09:11:00;;;;;;;2.67;2.03;;;;;;;25.84;46.23;99155.22;5139393;27;20561;-79
2021/07/02 09:13:44;;;;;;;1.57;1.47;;;;;;;25.84;48.02;99136.22;5106611;28;20568;-78
2021/07/02 09:16:27;;;;;;;1.80;1.60;;;;;;;26.10;48.52;99131.13;5105604;28;20571;-80
2021/07/02 09:19:27;;;;;;;3.07;1.90;;;;;;;26.33;49.09;99128.34;5127476;27;20580;-80
2021/07/02 09:22:18;;;;;;;1.93;1.30;;;;;;;26.35;49.78;99110.81;5106158;28;20556;-79
2021/07/02 09:25:10;;;;;;;1.57;1.47;;;;;;;26.35;48.51;99126.28;5105753;28;20556;-81
2021/07/02 09:27:56;;;;;;;2.40;1.47;;;;;;;26.33;48.75;99112.06;5105903;28;20907;-79
2021/07/02 09:30:41;;;;;;;1.70;1.37;;;;;;;26.56;48.42;99120.91;5105945;28;21051;-79
2021/07/02 09:33:25;;;;;;;2.83;1.63;;;;;;;27.05;47.64;99131.91;5105427;28;20989;-79
2021/07/02 09:36:09;;;;;;;1.60;1.10;;;;;;;27.31;46.53;99139.47;5105579;28;21001;-79
2021/07/02 09:38:52;;;;;;;2.00;1.80;;;;;;;27.44;46.49;99136.84;5104714;28;20564;-79
2021/07/02 09:41:35;;;;;;;1.87;1.53;;;;;;;27.95;44.63;99147.47;5105030;28;20575;-80
2021/07/02 09:44:15;;;;;;;1.23;1.13;;;;;;;29.37;42.75;99162.09;5188705;27;1290044;-79
2021/07/02 09:47:02;;;;;;;1.70;1.60;;;;;;;29.43;40.83;99169.44;5104947;28;20567;-79
2021/07/02 09:49:30;;;;;;;2.07;1.80;;;;;;;29.88;39.99;99173.22;5088084;28;40104;-80
2021/07/02 09:52:08;;;;;;;1.50;1.40;;;;;;;31.41;38.22;99175.13;5104387;28;42348;-81
2021/07/02 09:54:36;;;;;;;2.00;1.63;;;;;;;31.21;36.97;99196.34;5088193;28;43386;-80
2021/07/02 09:57:19;;;;;;;1.53;1.27;;;;;;;29.95;39.82;99156.81;5105438;28;42107;-79
2021/07/02 10:00:03;;;;;;;1.40;1.23;;;;;;;29.09;41.05;99158.69;5088063;28;40052;-79
2021/07/02 10:02:32;;;;;;;2.50;2.23;;;;;;;31.06;39.36;99166.50;5105252;28;40835;-79
2021/07/02 10:05:00;;;;;;;2.73;2.10;;;;;;;31.91;35.97;99186.13;5106145;28;43016;-79
2021/07/02 10:07:28;;;;;;;1.80;1.70;;;;;;;33.17;35.46;99191.81;5107745;28;41385;-80
2021/07/02 10:09:55;;;;;;;1.70;1.60;;;;;;;34.00;34.34;99190.13;5109943;27;39635;-79
2021/07/02 10:12:24;;;;;;;1.30;1.20;;;;;;;33.33;33.65;99189.50;5092023;28;42027;-79
2021/07/02 10:14:52;;;;;;;1.23;1.13;;;;;;;31.84;35.19;99179.03;5100215;28;41957;-80
2021/07/02 10:17:20;;;;;;;1.60;1.40;;;;;;;30.55;37.51;99179.41;5121332;28;41430;-82
2021/07/02 10:19:50;;;;;;;1.23;1.10;;;;;;;29.55;40.35;99147.88;5101039;28;38882;-83
2021/07/02 10:22:22;;;;;;;1.60;1.50;;;;;;;28.79;40.54;99155.50;5088065;28;41336;-83
2021/07/02 10:24:52;;;;;;;1.93;1.73;;;;;;;28.15;41.82;99140.28;5104758;28;42023;-83
2021/07/02 10:27:20;;;;;;;1.30;1.20;;;;;;;27.69;42.55;99141.88;5106253;28;42405;-85
2021/07/02 10:29:48;;;;;;;1.50;1.40;;;;;;;27.33;43.31;99134.66;5088640;28;39777;-83
2021/07/02 10:32:19;;;;;;;1.83;1.43;;;;;;;26.96;43.51;99124.91;5105289;28;40920;-83
2021/07/02 10:34:47;;;;;;;1.40;1.30;;;;;;;27.13;43.89;99120.03;5088030;28;42629;-85
2021/07/02 10:37:17;;;;;;;1.37;1.27;;;;;;;27.78;42.70;99127.06;5087671;28;42490;-87
2021/07/02 10:39:46;;;;;;;1.87;1.47;;;;;;;28.61;39.37;99153.28;5084163;28;39002;-82
2021/07/02 10:42:15;;;;;;;2.00;1.80;;;;;;;29.25;38.85;99153.69;5083907;28;42183;-82
2021/07/02 10:45:08;;;;;;;1.43;1.30;;;;;;;29.98;38.19;99160.00;5116774;27;42795;-80
2021/07/02 10:47:51;;;;;;;1.70;1.60;;;;;;;29.96;38.55;99148.44;5083349;28;41437;-81
2021/07/02 10:50:39;;;;;;;1.47;1.37;;;;;;;29.44;40.13;99140.28;5082925;28;39138;-80
2021/07/02 10:53:29;;;;;;;1.57;1.40;;;;;;;28.81;40.93;99126.94;5067230;28;41951;-84
2021/07/02 10:56:00;;;;;;;1.53;1.43;;;;;;;28.26;41.17;99132.59;5092914;28;41687;-83
2021/07/02 10:58:50;;;;;;;1.63;1.43;;;;;;;27.73;42.70;99132.28;5073547;28;42605;-83
2021/07/02 11:01:17;;;;;;;1.50;1.40;;;;;;;27.30;44.58;99121.47;5090952;28;40085;-81
2021/07/02 11:03:45;;;;;;;1.77;1.40;;;;;;;26.82;44.63;99107.59;5073394;28;42030;-80
2021/07/02 11:06:42;;;;;;;1.70;1.30;;;;;;;26.56;44.39;99126.34;5090860;28;42600;-82
2021/07/02 11:09:11;;;;;;;1.40;1.10;;;;;;;26.20;44.63;99134.44;5091725;28;42080;-82
2021/07/02 11:12:08;;;;;;;1.27;1.13;;;;;;;25.86;44.94;99129.56;5089943;28;39857;-82
2021/07/02 11:15:11;;;;;;;1.10;1.00;;;;;;;25.54;46.53;99119.03;5072151;28;41650;-78
2021/07/02 11:17:40;;;;;;;1.53;1.07;;;;;;;25.34;46.64;99122.28;5052705;28;42997;-78
2021/07/02 11:20:29;;;;;;;1.60;1.50;;;;;;;25.16;47.61;99110.91;5069798;28;42087;-80
2021/07/02 11:23:25;;;;;;;1.60;1.40;;;;;;;25.07;47.71;99109.28;5063865;28;38894;-80
2021/07/02 11:26:05;;;;;;;1.47;1.30;;;;;;;24.91;48.12;99095.84;5089713;28;42513;-80
2021/07/02 11:28:55;;;;;;;1.40;1.23;;;;;;;25.02;47.29;99117.13;5089460;28;42827;-80
2021/07/02 11:31:39;;;;;;;1.50;1.00;;;;;;;25.09;47.14;99118.09;5073149;28;41741;-82
2021/07/02 11:34:11;;;;;;;1.50;1.20;;;;;;;25.24;47.26;99112.69;5089776;28;39912;-83
2021/07/02 11:36:39;;;;;;;1.63;1.50;;;;;;;25.50;47.77;99109.56;5089947;28;41940;-81
2021/07/02 11:39:07;;;;;;;1.50;1.40;;;;;;;25.55;46.97;99066.47;5090158;28;44263;-82
2021/07/02 11:41:36;;;;;;;1.33;1.23;;;;;;;26.32;45.73;99122.09;5090337;28;42319;-80
2021/07/02 11:44:04;;;;;;;1.30;1.20;;;;;;;26.75;44.00;99128.41;5106720;28;38921;-78
2021/07/02 11:46:32;;;;;;;1.47;1.13;;;;;;;26.93;41.26;99124.47;5088709;28;41951;-78
2021/07/02 11:49:01;;;;;;;1.83;1.17;;;;;;;27.53;40.54;99143.84;5088837;28;43921;-79
2021/07/02 11:51:32;;;;;;;1.80;1.07;;;;;;;28.86;39.62;99146.28;5089156;28;41829;-78
2021/07/02 11:54:03;;;;;;;0.80;0.80;;;;;;;30.12;37.93;99149.88;5088840;28;40282;-78
2021/07/02 11:56:32;;;;;;;1.43;1.33;;;;;;;31.27;33.85;99178.22;5091215;28;41937;-84
2021/07/02 11:59:03;;;;;;;1.30;1.20;;;;;;;31.59;35.82;99146.16;5105903;28;41715;-78
2021/07/02 12:01:37;;;;;;;1.23;1.13;;;;;;;31.69;33.20;99171.16;5071539;28;42046;-78
2021/07/02 12:04:07;;;;;;;2.30;1.70;;;;;;;31.91;35.79;99142.28;5090221;28;40964;-81
2021/07/02 12:06:37;;;;;;;1.40;1.20;;;;;;;32.64;30.89;99179.88;5088779;28;41849;-84
2021/07/02 12:09:08;;;;;;;1.73;1.63;;;;;;;32.77;32.65;99152.28;5070874;28;42542;-83
2021/07/02 12:11:45;;;;;;;1.80;1.40;;;;;;;33.28;32.24;99159.16;5072228;28;41522;-82
2021/07/02 12:14:16;;;;;;;1.40;1.30;;;;;;;34.21;31.51;99159.25;5088937;28;40304;-83
2021/07/02 12:16:45;;;;;;;1.40;1.30;;;;;;;33.50;31.32;99169.38;5086905;28;40564;-81
2021/07/02 12:19:16;;;;;;;1.10;1.00;;;;;;;32.54;32.22;99154.88;5070828;28;42616;-81
2021/07/02 12:21:51;;;;;;;2.30;1.47;;;;;;;32.89;31.58;99166.88;5089916;28;42323;-84
2021/07/02 12:24:20;;;;;;;1.60;1.50;;;;;;;34.59;29.18;99187.06;5087956;28;39225;-80
2021/07/02 12:26:51;;;;;;;1.40;1.30;;;;;;;36.44;27.14;99187.31;5089098;28;41979;-82
2021/07/02 12:29:21;;;;;;;1.67;1.30;;;;;;;37.80;25.15;99192.72;5088268;28;41476;-84
2021/07/02 12:31:51;;;;;;;1.53;1.43;;;;;;;38.62;23.62;99175.53;5088277;28;42385;-84
2021/07/02 12:34:21;;;;;;;1.10;1.10;;;;;;;39.84;21.83;99207.94;5071456;28;40103;-83
2021/07/02 12:36:58;;;;;;;1.33;1.23;;;;;;;40.58;20.78;99209.25;5071131;28;40928;-84
2021/07/02 12:39:30;;;;;;;2.83;1.50;;;;;;;41.29;20.96;99197.84;5071922;28;41499;-85